Time;durP1;ratioP1;P1;durP2;ratioP2;P2;SDS_P1;SDS_P2;PMS_P1;PMS_P2;Temp;Humidity;BMP_temperature;BMP_pressure;BME280_temperature;BME280_humidity;BME280_pressure;Samples;Min_cycle;Max_cycle;Signal;HPM_P1;HPM_P2
2023/04/02 00:01:25;;;;;;;2.45;0.90;;;;;;;10.16;nan;98854.28;4916019;29;20221;-80
2023/04/02 00:03:58;;;;;;;1.15;0.90;;;;;;;10.15;nan;98848.19;4917263;29;20237;-81
2023/04/02 00:06:31;;;;;;;1.63;1.00;;;;;;;10.17;nan;98848.06;4916934;29;20228;-80
2023/04/02 00:09:00;;;;;;;1.67;1.02;;;;;;;10.17;nan;98851.53;4917184;29;20697;-80
2023/04/02 00:11:37;;;;;;;0.85;0.80;;;;;;;10.18;nan;98847.97;4932350;29;20214;-80
2023/04/02 00:14:14;;;;;;;2.45;0.85;;;;;;;10.19;nan;98848.81;4918475;29;20234;-80
2023/04/02 00:16:40;;;;;;;1.65;0.90;;;;;;;10.19;nan;98854.88;4919685;29;20322;-81
2023/04/02 00:19:12;;;;;;;1.13;0.90;;;;;;;10.18;nan;98853.22;4919470;29;21197;-81
2023/04/02 00:21:40;;;;;;;1.10;1.00;;;;;;;10.20;nan;98855.72;4920160;29;20682;-80
2023/04/02 00:24:18;;;;;;;3.67;1.42;;;;;;;10.20;nan;98855.72;4919044;29;20235;-82
2023/04/02 00:26:46;;;;;;;1.33;1.00;;;;;;;10.21;nan;98857.41;4920755;29;20281;-80
2023/04/02 00:29:14;;;;;;;1.10;0.93;;;;;;;10.20;nan;98861.78;4923916;29;20279;-80
2023/04/02 00:31:42;;;;;;;1.27;1.10;;;;;;;10.21;nan;98860.03;4919641;29;20232;-82
2023/04/02 00:34:16;;;;;;;1.13;1.02;;;;;;;10.21;nan;98862.66;4920245;29;20220;-80
2023/04/02 00:36:42;;;;;;;6.60;1.90;;;;;;;10.21;nan;98860.03;4934456;29;20205;-81
2023/04/02 00:39:19;;;;;;;4.68;2.00;;;;;;;10.19;nan;98857.50;4927407;29;20234;-80
2023/04/02 00:41:45;;;;;;;2.42;1.58;;;;;;;10.18;nan;98855.00;4919883;29;20264;-80
2023/04/02 00:44:20;;;;;;;2.05;1.00;;;;;;;10.20;nan;98853.09;4919476;29;20219;-80
2023/04/02 00:46:48;;;;;;;4.10;0.90;;;;;;;10.17;nan;98853.31;4913651;29;20693;-80
2023/04/02 00:49:34;;;;;;;3.40;1.88;;;;;;;10.17;nan;98851.53;4911452;29;20687;-80
2023/04/02 00:52:13;;;;;;;2.65;1.02;;;;;;;10.17;nan;98845.44;4913047;29;20216;-80
2023/04/02 00:54:48;;;;;;;2.88;1.20;;;;;;;10.17;nan;98855.94;4927555;29;20730;-79
2023/04/02 00:57:24;;;;;;;1.50;1.08;;;;;;;10.16;nan;98849.88;4914458;29;20215;-80
2023/04/02 01:00:19;;;;;;;1.52;0.90;;;;;;;10.18;nan;98849.78;4914500;29;20222;-79
2023/04/02 01:03:16;;;;;;;1.38;0.77;;;;;;;10.17;nan;98850.69;4898584;29;20239;-79
2023/04/02 01:05:44;;;;;;;1.23;1.10;;;;;;;10.17;nan;98851.53;4927496;29;20478;-81
2023/04/02 01:08:26;;;;;;;2.25;0.77;;;;;;;10.19;nan;98852.25;4914771;29;20216;-80
2023/04/02 01:11:06;;;;;;;1.58;1.00;;;;;;;10.18;nan;98853.22;4927124;29;20207;-79
2023/04/02 01:14:09;;;;;;;2.67;1.00;;;;;;;10.16;nan;98849.88;4913737;29;20199;-80
2023/04/02 01:16:59;;;;;;;1.40;1.27;;;;;;;10.14;nan;98856.19;4912014;29;20204;-79
2023/04/02 01:20:21;;;;;;;1.25;0.90;;;;;;;10.13;nan;98860.59;4914113;29;20307;-79
2023/04/02 01:22:57;;;;;;;0.70;0.60;;;;;;;10.11;nan;98861.66;4914188;29;20195;-80
2023/04/02 01:25:39;;;;;;;2.70;1.00;;;;;;;10.08;nan;98862.72;4929453;29;20580;-79
2023/04/02 01:28:32;;;;;;;2.70;0.80;;;;;;;10.09;nan;98868.78;4914727;29;20191;-80
2023/04/02 01:31:01;;;;;;;1.75;0.80;;;;;;;10.09;nan;98868.78;4911831;29;20208;-79
2023/04/02 01:33:31;;;;;;;1.52;0.90;;;;;;;10.09;nan;98863.53;4923841;29;20668;-77
2023/04/02 01:36:08;;;;;;;1.85;1.00;;;;;;;10.09;nan;98860.91;4906113;29;20188;-77
2023/04/02 01:38:46;;;;;;;1.30;0.77;;;;;;;10.11;nan;98867.75;4906205;29;20227;-77
2023/04/02 01:41:38;;;;;;;1.20;1.10;;;;;;;10.11;nan;98864.28;4904832;29;20220;-77
2023/04/02 01:44:11;;;;;;;2.05;0.95;;;;;;;10.11;nan;98864.28;4913697;29;20294;-77
2023/04/02 01:46:41;;;;;;;0.85;0.70;;;;;;;10.11;nan;98867.75;4921010;29;20200;-77
2023/04/02 01:49:14;;;;;;;1.17;0.80;;;;;;;10.12;nan;98868.56;4905628;29;20206;-77
2023/04/02 01:51:49;;;;;;;0.80;0.73;;;;;;;10.12;nan;98863.31;4905836;29;20196;-77
2023/04/02 01:54:17;;;;;;;1.40;1.10;;;;;;;10.14;nan;98871.91;4904718;29;20240;-77
2023/04/02 01:56:43;;;;;;;1.45;1.15;;;;;;;10.13;nan;98865.84;4904341;29;20192;-77
2023/04/02 01:59:10;;;;;;;2.70;1.17;;;;;;;10.13;nan;98865.84;4904661;29;20224;-77
2023/04/02 02:01:47;;;;;;;1.92;1.15;;;;;;;10.16;nan;98867.41;4904662;29;20208;-77
2023/04/02 02:04:15;;;;;;;2.50;1.00;;;;;;;10.15;nan;98868.34;4903915;29;20442;-77
2023/04/02 02:06:42;;;;;;;2.70;0.80;;;;;;;10.15;nan;98873.59;4917255;29;20302;-77
2023/04/02 02:09:14;;;;;;;1.95;1.00;;;;;;;10.16;nan;98870.03;4904917;29;20188;-77
2023/04/02 02:11:40;;;;;;;0.90;0.82;;;;;;;10.16;nan;98872.66;4901936;29;20203;-77
2023/04/02 02:14:21;;;;;;;1.02;0.90;;;;;;;10.18;nan;98870.75;4905610;29;20243;-77
2023/04/02 02:16:47;;;;;;;3.20;1.00;;;;;;;10.18;nan;98873.38;4902827;29;20678;-77
2023/04/02 02:19:26;;;;;;;3.10;1.27;;;;;;;10.17;nan;98882.19;4895715;29;20224;-77
2023/04/02 02:22:25;;;;;;;1.13;1.02;;;;;;;10.13;nan;98881.59;4905273;29;20201;-77
2023/04/02 02:24:52;;;;;;;2.03;1.30;;;;;;;10.12;nan;98889.56;4914600;29;20219;-77
2023/04/02 02:27:41;;;;;;;1.00;0.88;;;;;;;10.11;nan;98885.28;4923748;29;20297;-77
2023/04/02 02:30:16;;;;;;;1.15;1.00;;;;;;;10.11;nan;98895.78;4913821;29;20239;-77
2023/04/02 02:33:08;;;;;;;1.95;1.00;;;;;;;10.10;nan;98901.94;4913321;29;20218;-76
2023/04/02 02:35:43;;;;;;;1.58;1.25;;;;;;;10.09;nan;98893.25;4929857;29;20665;-79
2023/04/02 02:38:33;;;;;;;1.23;0.90;;;;;;;10.09;nan;98895.03;4905381;29;20226;-79
2023/04/02 02:41:23;;;;;;;1.65;1.10;;;;;;;10.09;nan;98892.41;4914157;29;20751;-79
2023/04/02 02:43:59;;;;;;;1.52;1.15;;;;;;;10.09;nan;98900.28;4911648;29;20217;-79
2023/04/02 02:46:27;;;;;;;1.60;0.85;;;;;;;10.07;nan;98902.19;4912314;29;20314;-80
2023/04/02 02:48:56;;;;;;;2.22;1.20;;;;;;;10.08;nan;98901.25;4928364;29;20188;-80
2023/04/02 02:51:36;;;;;;;1.20;1.00;;;;;;;10.06;nan;98906.59;4914372;29;20223;-80
2023/04/02 02:54:04;;;;;;;1.02;0.93;;;;;;;10.06;nan;98900.50;4929261;29;20311;-80
2023/04/02 02:56:35;;;;;;;1.48;1.27;;;;;;;10.04;nan;98902.41;4928600;29;20198;-80
2023/04/02 02:59:05;;;;;;;1.02;0.93;;;;;;;10.04;nan;98902.41;4914352;29;20796;-80
2023/04/02 03:01:36;;;;;;;2.70;1.10;;;;;;;10.04;nan;98905.84;4913868;29;20748;-79
2023/04/02 03:04:03;;;;;;;1.10;1.00;;;;;;;10.03;nan;98911.22;4912750;29;20371;-79
2023/04/02 03:06:29;;;;;;;1.48;1.02;;;;;;;10.03;nan;98908.59;4928615;29;20906;-79
2023/04/02 03:09:36;;;;;;;3.45;1.10;;;;;;;10.01;nan;98915.75;4930158;29;20293;-79
2023/04/02 03:12:39;;;;;;;0.88;0.88;;;;;;;9.98;nan;98919.44;4865337;29;20208;-79
2023/04/02 03:15:19;;;;;;;5.80;1.48;;;;;;;9.95;nan;98914.41;4880029;29;20217;-80
2023/04/02 03:18:09;;;;;;;4.30;1.20;;;;;;;9.94;nan;98918.81;4920337;29;20204;-79
2023/04/02 03:20:39;;;;;;;2.80;1.60;;;;;;;9.95;nan;98930.16;4928278;29;20207;-79
2023/04/02 03:23:16;;;;;;;2.47;1.08;;;;;;;9.96;nan;98926.56;4913429;29;20201;-79
2023/04/02 03:25:49;;;;;;;2.50;1.10;;;;;;;9.93;nan;98930.25;4912854;29;20229;-79
2023/04/02 03:28:21;;;;;;;2.78;0.90;;;;;;;9.93;nan;98932.88;4913433;29;20192;-80
2023/04/02 03:30:54;;;;;;;1.77;1.27;;;;;;;9.95;nan;98938.03;4913623;29;20543;-80
2023/04/02 03:33:25;;;;;;;1.35;0.93;;;;;;;9.93;nan;98937.28;4915253;29;20196;-80
2023/04/02 03:36:19;;;;;;;1.33;1.23;;;;;;;9.93;nan;98938.13;4914198;29;20211;-79
2023/04/02 03:39:00;;;;;;;3.08;1.35;;;;;;;9.93;nan;98940.75;4928360;29;20224;-79
2023/04/02 03:42:03;;;;;;;1.75;1.23;;;;;;;9.93;nan;98953.03;4919206;29;20295;-80
2023/04/02 03:44:54;;;;;;;1.17;0.85;;;;;;;9.91;nan;98955.78;4913227;29;20665;-79
2023/04/02 03:47:27;;;;;;;3.95;1.10;;;;;;;9.91;nan;98949.66;4915400;29;20251;-79
2023/04/02 03:50:05;;;;;;;1.30;1.20;;;;;;;9.89;nan;98946.34;4929344;29;20555;-80
2023/04/02 03:52:35;;;;;;;2.35;0.88;;;;;;;9.89;nan;98952.41;4904648;29;20574;-80
2023/04/02 03:55:08;;;;;;;2.10;1.00;;;;;;;9.89;nan;98957.66;4920097;29;20236;-80
2023/04/02 03:57:41;;;;;;;1.00;0.90;;;;;;;9.89;nan;98951.59;4913012;29;20203;-80
2023/04/02 04:00:15;;;;;;;1.23;1.10;;;;;;;9.90;nan;98961.13;4912838;29;20697;-80
2023/04/02 04:02:51;;;;;;;1.20;0.80;;;;;;;9.89;nan;98960.28;4914550;29;20203;-79
2023/04/02 04:05:23;;;;;;;2.10;1.20;;;;;;;9.91;nan;98961.03;4927110;29;20465;-79
2023/04/02 04:07:54;;;;;;;2.88;1.42;;;;;;;9.92;nan;98969.72;4913816;29;20202;-80
2023/04/02 04:10:24;;;;;;;1.33;1.17;;;;;;;9.91;nan;98955.78;4930630;29;20205;-79
2023/04/02 04:12:53;;;;;;;2.00;1.10;;;;;;;9.91;nan;98974.13;4913641;29;20330;-80
2023/04/02 04:15:38;;;;;;;3.65;1.20;;;;;;;9.90;nan;98964.56;4930326;29;20218;-80
2023/04/02 04:18:04;;;;;;;1.13;0.80;;;;;;;9.88;nan;98966.50;4913210;29;20287;-79
2023/04/02 04:21:00;;;;;;;1.08;0.90;;;;;;;9.89;nan;98972.56;4927697;29;20200;-79
2023/04/02 04:23:37;;;;;;;1.38;1.08;;;;;;;9.89;nan;98976.03;4912217;29;20203;-80
2023/04/02 04:26:19;;;;;;;1.60;1.02;;;;;;;9.89;nan;98975.19;4911285;29;20231;-80
2023/04/02 04:29:04;;;;;;;1.85;0.98;;;;;;;9.90;nan;98979.47;4912124;29;20694;-79
2023/04/02 04:31:45;;;;;;;1.80;0.93;;;;;;;9.87;nan;98983.16;4928039;29;20207;-80
2023/04/02 04:34:17;;;;;;;0.95;0.85;;;;;;;9.87;nan;98979.69;4912527;29;20255;-80
2023/04/02 04:36:52;;;;;;;2.38;1.15;;;;;;;9.85;nan;98987.66;4914101;29;20280;-80
2023/04/02 04:39:44;;;;;;;1.20;0.95;;;;;;;9.87;nan;98992.81;4903521;29;20229;-79
2023/04/02 04:42:21;;;;;;;0.80;0.70;;;;;;;9.86;nan;98997.22;4920534;29;20209;-80
2023/04/02 04:45:28;;;;;;;2.13;0.82;;;;;;;9.85;nan;98998.16;4911941;29;20252;-80
2023/04/02 04:48:00;;;;;;;1.48;0.98;;;;;;;9.85;nan;99007.81;4906460;29;20212;-80
2023/04/02 04:50:33;;;;;;;1.25;0.60;;;;;;;9.83;nan;99010.56;4920567;29;20204;-80
2023/04/02 04:53:11;;;;;;;0.77;0.77;;;;;;;9.84;nan;99011.41;4919190;29;20205;-79
2023/04/02 04:55:46;;;;;;;2.58;0.93;;;;;;;9.82;nan;99008.88;4925877;29;20273;-77
2023/04/02 04:58:21;;;;;;;1.10;0.90;;;;;;;9.82;nan;99016.72;4920742;29;20232;-77
2023/04/02 05:01:06;;;;;;;2.55;0.85;;;;;;;9.82;nan;99024.59;4920750;29;20216;-77
2023/04/02 05:03:47;;;;;;;0.70;0.70;;;;;;;9.79;nan;99019.56;4904854;29;20203;-79
2023/04/02 05:06:40;;;;;;;0.80;0.75;;;;;;;9.77;nan;99029.34;4920173;29;20273;-77
2023/04/02 05:09:16;;;;;;;0.95;0.77;;;;;;;9.78;nan;99028.41;4904893;29;20636;-78
2023/04/02 05:12:16;;;;;;;1.63;0.82;;;;;;;9.77;nan;99031.13;4920339;29;20209;-77
2023/04/02 05:14:55;;;;;;;1.00;0.80;;;;;;;9.77;nan;99028.50;4899426;29;20238;-77
2023/04/02 05:17:34;;;;;;;0.95;0.85;;;;;;;9.78;nan;99035.44;4920609;29;20213;-78
2023/04/02 05:20:15;;;;;;;1.08;0.80;;;;;;;9.78;nan;99031.03;4920348;29;20320;-77
2023/04/02 05:22:54;;;;;;;1.10;0.80;;;;;;;9.80;nan;99030.91;4920391;29;20608;-79
2023/04/02 05:25:25;;;;;;;1.83;0.80;;;;;;;9.80;nan;99036.97;4920204;29;20230;-77
2023/04/02 05:27:55;;;;;;;1.42;1.10;;;;;;;9.80;nan;99041.41;4904861;29;20283;-77
2023/04/02 05:30:23;;;;;;;1.90;0.80;;;;;;;9.77;nan;99042.44;4905910;29;20206;-77
2023/04/02 05:33:00;;;;;;;2.55;0.93;;;;;;;9.77;nan;99046.84;4920221;29;20201;-78
2023/04/02 05:35:31;;;;;;;1.63;0.90;;;;;;;9.77;nan;99039.81;4920458;29;20325;-77
2023/04/02 05:38:00;;;;;;;1.27;1.00;;;;;;;9.75;nan;99047.81;4907351;29;20217;-77
2023/04/02 05:40:34;;;;;;;3.13;0.90;;;;;;;9.77;nan;99039.00;4905844;29;20533;-77
2023/04/02 05:43:06;;;;;;;1.55;0.90;;;;;;;9.76;nan;99051.28;4906277;29;20209;-78
2023/04/02 05:45:37;;;;;;;1.35;1.00;;;;;;;9.77;nan;99046.84;4904242;29;20229;-78
2023/04/02 05:48:17;;;;;;;1.00;0.90;;;;;;;9.78;nan;99054.63;4904977;29;20273;-79
2023/04/02 05:50:55;;;;;;;1.60;0.80;;;;;;;9.80;nan;99050.09;4904083;29;20269;-77
2023/04/02 05:53:32;;;;;;;1.33;1.05;;;;;;;9.80;nan;99057.13;4920142;29;20216;-77
2023/04/02 05:56:26;;;;;;;1.00;0.80;;;;;;;9.78;nan;99061.66;4914266;29;20250;-77
2023/04/02 05:58:56;;;;;;;1.95;1.23;;;;;;;9.77;nan;99067.84;4909258;29;20293;-77
2023/04/02 06:01:46;;;;;;;1.10;1.00;;;;;;;9.76;nan;99067.00;4924491;29;20213;-77
2023/04/02 06:05:04;;;;;;;1.20;0.90;;;;;;;9.75;nan;99074.03;4899923;29;20213;-77
2023/04/02 06:07:57;;;;;;;1.17;1.00;;;;;;;9.74;nan;99074.97;4922301;29;20216;-77
2023/04/02 06:10:30;;;;;;;1.20;1.10;;;;;;;9.74;nan;99077.59;4899914;29;20210;-77
2023/04/02 06:13:02;;;;;;;0.90;0.90;;;;;;;9.76;nan;99082.75;4909169;29;20221;-77
2023/04/02 06:15:30;;;;;;;3.30;0.98;;;;;;;9.76;nan;99085.38;4914210;29;20233;-77
2023/04/02 06:18:12;;;;;;;2.75;1.13;;;;;;;9.78;nan;99083.47;4923586;29;20243;-77
2023/04/02 06:20:39;;;;;;;1.13;0.80;;;;;;;9.79;nan;99081.69;4923351;29;20229;-77
2023/04/02 06:23:10;;;;;;;1.10;0.90;;;;;;;9.82;nan;99087.56;4908095;29;20216;-78
2023/04/02 06:25:46;;;;;;;1.67;0.80;;;;;;;9.80;nan;99078.94;4908753;29;20764;-77
2023/04/02 06:28:23;;;;;;;2.17;0.95;;;;;;;9.84;nan;99085.69;4915014;29;20217;-77
2023/04/02 06:30:56;;;;;;;0.77;0.73;;;;;;;9.91;nan;99088.69;4913000;29;20224;-77
2023/04/02 06:33:22;;;;;;;0.80;0.80;;;;;;;9.95;nan;99080.53;4907354;29;20262;-77
2023/04/02 06:35:50;;;;;;;2.40;1.00;;;;;;;10.05;nan;99085.16;4920420;29;20521;-77
2023/04/02 06:38:28;;;;;;;1.00;0.90;;;;;;;10.12;nan;99095.06;4907520;29;20221;-77
2023/04/02 06:40:58;;;;;;;0.77;0.70;;;;;;;10.19;nan;99101.59;4920119;29;20218;-78
2023/04/02 06:43:44;;;;;;;0.80;0.80;;;;;;;10.26;nan;99101.16;4916454;29;20250;-78
2023/04/02 06:46:42;;;;;;;1.33;0.93;;;;;;;10.31;nan;99099.06;4923181;29;21180;-77
2023/04/02 06:49:13;;;;;;;0.70;0.60;;;;;;;10.34;nan;99114.59;4923388;29;20218;-77
2023/04/02 06:51:41;;;;;;;0.73;0.70;;;;;;;10.39;nan;99112.50;4923429;29;20588;-77
2023/04/02 06:54:14;;;;;;;0.80;0.70;;;;;;;10.45;nan;99119.09;4907358;29;20282;-78
2023/04/02 06:56:52;;;;;;;0.80;0.80;;;;;;;10.51;nan;99121.31;4907145;29;20221;-78
2023/04/02 06:59:27;;;;;;;1.13;0.70;;;;;;;10.58;nan;99127.78;4922919;29;20230;-77
2023/04/02 07:02:05;;;;;;;0.73;0.70;;;;;;;10.61;nan;99122.31;4923196;29;20187;-77
2023/04/02 07:04:32;;;;;;;1.20;0.80;;;;;;;10.64;nan;99124.75;4922657;29;20190;-77
2023/04/02 07:06:58;;;;;;;0.70;0.60;;;;;;;10.68;nan;99133.22;4922927;29;20198;-78
2023/04/02 07:09:26;;;;;;;1.10;1.02;;;;;;;10.76;nan;99134.34;4922833;29;20198;-78
2023/04/02 07:11:55;;;;;;;0.80;0.80;;;;;;;10.83;nan;99140.84;4923416;29;20260;-78
2023/04/02 07:14:20;;;;;;;0.80;0.70;;;;;;;10.88;nan;99145.75;4923237;29;21439;-79
2023/04/02 07:16:46;;;;;;;1.10;0.80;;;;;;;10.88;nan;99139.66;4922981;29;20198;-78
2023/04/02 07:19:20;;;;;;;0.90;0.70;;;;;;;10.91;nan;99142.94;4912661;29;20229;-79
2023/04/02 07:21:47;;;;;;;0.93;0.80;;;;;;;10.96;nan;99145.19;4911183;29;20218;-79
2023/04/02 07:24:13;;;;;;;1.10;0.70;;;;;;;11.01;nan;99148.34;4922530;29;20590;-77
2023/04/02 07:26:39;;;;;;;1.43;0.80;;;;;;;11.06;nan;99159.34;4908245;29;20458;-76
2023/04/02 07:29:07;;;;;;;1.20;1.10;;;;;;;11.11;nan;99153.78;4908209;29;20250;-78
2023/04/02 07:31:32;;;;;;;1.70;1.60;;;;;;;11.16;nan;99155.13;4908036;29;20622;-78
2023/04/02 07:33:59;;;;;;;2.53;1.67;;;;;;;11.24;nan;99158.03;4908069;29;20269;-77
2023/04/02 07:36:26;;;;;;;1.13;0.80;;;;;;;11.33;nan;99160.91;4908161;29;20195;-77
2023/04/02 07:38:52;;;;;;;1.60;0.70;;;;;;;11.39;nan;99153.41;4908011;29;20220;-78
2023/04/02 07:41:18;;;;;;;1.23;0.80;;;;;;;11.46;nan;99156.44;4907758;29;20190;-77
2023/04/02 07:43:44;;;;;;;0.80;0.80;;;;;;;11.55;nan;99166.25;4908197;29;20779;-79
2023/04/02 07:46:12;;;;;;;0.90;0.75;;;;;;;11.66;nan;99155.75;4907949;29;20194;-79
2023/04/02 07:48:39;;;;;;;0.98;0.60;;;;;;;11.79;nan;99157.47;4908578;29;20191;-77
2023/04/02 07:51:13;;;;;;;1.67;1.23;;;;;;;11.89;nan;99163.75;4909683;29;20197;-78
2023/04/02 07:53:38;;;;;;;1.10;0.73;;;;;;;11.94;nan;99162.44;4908288;29;20186;-81
2023/04/02 07:56:04;;;;;;;0.70;0.70;;;;;;;11.99;nan;99159.47;4908075;29;20234;-80
2023/04/02 07:58:31;;;;;;;1.40;0.98;;;;;;;12.02;nan;99175.03;4908056;29;20254;-80
2023/04/02 08:00:58;;;;;;;0.90;0.73;;;;;;;12.03;nan;99165.31;4907912;29;20198;-79
2023/04/02 08:03:23;;;;;;;2.70;0.90;;;;;;;12.07;nan;99166.75;4905404;29;20554;-79
2023/04/02 08:05:54;;;;;;;1.90;1.13;;;;;;;12.20;nan;99169.28;4906654;29;20473;-79
2023/04/02 08:08:20;;;;;;;0.80;0.80;;;;;;;12.28;nan;99180.91;4907958;29;20190;-78
2023/04/02 08:10:46;;;;;;;0.95;0.82;;;;;;;12.34;nan;99190.13;4907791;29;20201;-79
2023/04/02 08:13:13;;;;;;;0.75;0.75;;;;;;;12.40;nan;99192.28;4907791;29;20194;-80
2023/04/02 08:15:39;;;;;;;1.88;0.70;;;;;;;12.47;nan;99190.84;4907323;29;20300;-78
2023/04/02 08:18:05;;;;;;;1.17;0.80;;;;;;;12.55;nan;99192.88;4907262;29;20572;-78
2023/04/02 08:20:30;;;;;;;2.03;1.20;;;;;;;12.55;nan;99196.34;4906846;29;20242;-78
2023/04/02 08:22:57;;;;;;;0.70;0.70;;;;;;;12.54;nan;99199.13;4907041;29;20190;-79
2023/04/02 08:25:22;;;;;;;0.88;0.80;;;;;;;12.53;nan;99200.91;4907797;29;20230;-78
2023/04/02 08:27:48;;;;;;;1.77;0.97;;;;;;;12.49;nan;99202.09;4907140;29;20194;-78
2023/04/02 08:30:15;;;;;;;1.00;0.83;;;;;;;12.50;nan;99201.16;4906969;29;20489;-78
2023/04/02 08:32:41;;;;;;;1.75;1.20;;;;;;;12.55;nan;99219.22;4907032;29;20214;-77
2023/04/02 08:35:13;;;;;;;1.00;0.90;;;;;;;12.57;nan;99210.25;4906849;29;20688;-78
2023/04/02 08:37:40;;;;;;;1.45;0.80;;;;;;;12.60;nan;99220.53;4907181;29;20198;-78
2023/04/02 08:40:06;;;;;;;1.58;0.80;;;;;;;12.61;nan;99224.88;4906493;29;20231;-78
2023/04/02 08:42:46;;;;;;;2.60;2.40;;;;;;;12.60;nan;99223.16;4906792;29;20193;-78
2023/04/02 08:45:22;;;;;;;2.58;1.30;;;;;;;12.52;nan;99228.19;4906863;29;20212;-78
2023/04/02 08:47:50;;;;;;;0.73;0.73;;;;;;;12.50;nan;99231.91;4906793;29;20203;-79
2023/04/02 08:50:32;;;;;;;1.15;1.00;;;;;;;12.52;nan;99236.09;4906849;29;20244;-78
2023/04/02 08:53:01;;;;;;;1.00;0.68;;;;;;;12.60;nan;99235.50;4906941;29;20233;-78
2023/04/02 08:55:38;;;;;;;0.70;0.70;;;;;;;12.63;nan;99237.91;4906871;29;20240;-79
2023/04/02 08:58:25;;;;;;;0.88;0.82;;;;;;;12.68;nan;99242.81;4906587;29;20741;-78
2023/04/02 09:00:54;;;;;;;0.82;0.68;;;;;;;12.71;nan;99245.22;4907064;29;20200;-78
2023/04/02 09:03:28;;;;;;;0.98;0.85;;;;;;;12.71;nan;99250.50;4907532;29;20200;-78
2023/04/02 09:05:55;;;;;;;2.08;1.88;;;;;;;12.74;nan;99250.25;4906678;29;20198;-79
2023/04/02 09:08:26;;;;;;;0.82;0.70;;;;;;;12.77;nan;99252.63;4906821;29;20195;-80
2023/04/02 09:11:06;;;;;;;0.80;0.80;;;;;;;12.81;nan;99251.44;4906386;29;20196;-80
2023/04/02 09:13:36;;;;;;;0.85;0.70;;;;;;;12.90;nan;99248.06;4906406;29;20246;-78
2023/04/02 09:16:11;;;;;;;4.80;0.80;;;;;;;13.05;nan;99267.13;4906635;29;20206;-79
2023/04/02 09:18:37;;;;;;;1.67;0.80;;;;;;;13.21;nan;99253.56;4906646;29;20690;-78
2023/04/02 09:21:31;;;;;;;0.90;0.70;;;;;;;13.44;nan;99255.19;4906895;29;20233;-78
2023/04/02 09:23:57;;;;;;;1.45;1.20;;;;;;;13.71;nan;99257.38;4906826;29;20683;-78
2023/04/02 09:26:27;;;;;;;;;;;;;;;14.06;nan;99264.19;4907621;29;20100;-78
2023/04/02 09:29:01;;;;;;;2.35;1.00;;;;;;;14.37;nan;99257.16;4907421;29;20213;-79
2023/04/02 09:31:54;;;;;;;1.70;1.40;;;;;;;14.50;nan;99253.47;4907635;29;20183;-78
2023/04/02 09:34:34;;;;;;;1.23;1.13;;;;;;;14.63;nan;99262.03;4910785;29;20233;-79
2023/04/02 09:37:21;;;;;;;1.23;0.93;;;;;;;14.71;nan;99262.22;4911174;29;20464;-80
2023/04/02 09:39:47;;;;;;;2.08;1.75;;;;;;;14.69;nan;99264.19;4910357;29;20610;-80
2023/04/02 09:42:35;;;;;;;1.00;0.90;;;;;;;14.78;nan;99263.38;4911052;29;21016;-81
2023/04/02 09:45:18;;;;;;;0.93;0.80;;;;;;;14.92;nan;99270.09;4910204;29;20465;-79
2023/04/02 09:47:44;;;;;;;1.08;0.82;;;;;;;15.09;nan;99265.16;4911170;29;20755;-81
2023/04/02 09:50:31;;;;;;;1.53;0.90;;;;;;;15.31;nan;99264.09;4911576;29;20249;-82
2023/04/02 09:52:57;;;;;;;0.80;0.65;;;;;;;15.57;nan;99267.91;4911331;29;20206;-79
2023/04/02 09:55:25;;;;;;;1.50;0.77;;;;;;;15.92;nan;99263.91;4910392;29;20253;-80
2023/04/02 09:58:06;;;;;;;1.45;0.90;;;;;;;16.13;nan;99266.41;4910851;29;20206;-79
2023/04/02 10:00:31;;;;;;;1.30;0.93;;;;;;;16.10;nan;99270.16;4910931;29;20237;-78
2023/04/02 10:03:04;;;;;;;1.33;0.83;;;;;;;15.92;nan;99275.31;4910009;29;20270;-80
2023/04/02 10:05:31;;;;;;;2.10;1.10;;;;;;;15.66;nan;99277.69;4910392;29;20202;-78
2023/04/02 10:08:15;;;;;;;1.20;0.90;;;;;;;15.49;nan;99283.63;4908903;29;20198;-81
2023/04/02 10:10:49;;;;;;;3.05;2.20;;;;;;;15.43;nan;99278.88;4908483;29;21035;-80
2023/04/02 10:13:25;;;;;;;1.25;0.70;;;;;;;15.61;nan;99279.91;4910776;29;20674;-81
2023/04/02 10:16:00;;;;;;;0.77;0.70;;;;;;;15.94;nan;99288.44;4910885;29;20190;-81
2023/04/02 10:18:40;;;;;;;0.80;0.80;;;;;;;16.42;nan;99279.59;4910079;29;20726;-79
2023/04/02 10:21:08;;;;;;;0.70;0.60;;;;;;;16.91;nan;99282.97;4908553;29;20507;-80
2023/04/02 10:23:34;;;;;;;1.55;0.80;;;;;;;17.10;nan;99287.34;4909571;29;20652;-78
2023/04/02 10:26:07;;;;;;;1.87;1.77;;;;;;;17.10;nan;99281.22;4910201;29;20310;-78
2023/04/02 10:28:46;;;;;;;1.00;0.70;;;;;;;17.08;nan;99283.16;4909709;29;20210;-78
2023/04/02 10:31:24;;;;;;;1.70;0.63;;;;;;;16.96;nan;99286.00;4908998;29;20204;-78
2023/04/02 10:33:54;;;;;;;0.90;0.70;;;;;;;16.94;nan;99280.00;4908231;29;20608;-80
2023/04/02 10:36:38;;;;;;;0.80;0.70;;;;;;;16.83;nan;99282.84;4907585;29;20278;-79
2023/04/02 10:39:20;;;;;;;1.30;0.80;;;;;;;16.73;nan;99285.50;4906725;29;20249;-79
2023/04/02 10:42:02;;;;;;;1.55;1.08;;;;;;;16.65;nan;99296.00;4911812;29;20205;-78
2023/04/02 10:44:46;;;;;;;0.88;0.70;;;;;;;16.73;nan;99295.28;4908287;29;20215;-79
2023/04/02 10:47:21;;;;;;;1.67;0.73;;;;;;;16.86;nan;99292.34;4909369;29;20202;-79
2023/04/02 10:50:23;;;;;;;0.90;0.75;;;;;;;16.98;nan;99296.47;4910403;29;20202;-80
2023/04/02 10:52:53;;;;;;;0.98;0.90;;;;;;;17.10;nan;99291.81;4920396;29;20195;-80
2023/04/02 10:55:29;;;;;;;0.80;0.80;;;;;;;17.29;nan;99293.53;4942029;23;20234;-84
2023/04/02 10:57:58;;;;;;;0.70;0.70;;;;;;;17.25;nan;99296.50;4907270;28;20208;-83
2023/04/02 11:00:27;;;;;;;0.70;0.60;;;;;;;17.10;nan;99297.97;4913227;29;20223;-84
2023/04/02 11:02:59;;;;;;;1.00;0.90;;;;;;;17.04;nan;99303.88;4924336;29;20193;-84
2023/04/02 11:05:35;;;;;;;1.25;1.00;;;;;;;17.00;nan;99305.94;4923513;29;20685;-84
2023/04/02 11:08:25;;;;;;;0.90;0.70;;;;;;;16.91;nan;99309.50;4921909;29;20193;-84
2023/04/02 11:11:16;;;;;;;0.70;0.68;;;;;;;16.74;nan;99311.06;4923410;29;20210;-84
2023/04/02 11:13:54;;;;;;;1.00;0.90;;;;;;;16.59;nan;99315.97;4944436;29;20214;-85
2023/04/02 11:16:20;;;;;;;1.02;0.85;;;;;;;16.42;nan;99314.06;4923343;29;20254;-84
2023/04/02 11:19:14;;;;;;;0.70;0.63;;;;;;;16.28;nan;99325.94;4923702;29;20233;-85
2023/04/02 11:21:47;;;;;;;0.60;0.60;;;;;;;16.15;nan;99318.28;4925148;29;20275;-84
2023/04/02 11:24:35;;;;;;;1.15;0.75;;;;;;;16.02;nan;99325.66;4922392;29;20202;-85
2023/04/02 11:27:10;;;;;;;0.75;0.75;;;;;;;15.91;nan;99321.34;4923959;29;20187;-84
2023/04/02 11:30:01;;;;;;;0.90;0.80;;;;;;;15.80;nan;99333.88;4922910;28;20193;-84
2023/04/02 11:32:43;;;;;;;0.88;0.70;;;;;;;15.69;nan;99321.59;4925483;29;20245;-84
2023/04/02 11:35:30;;;;;;;1.10;0.80;;;;;;;15.67;nan;99331.47;4924875;29;20885;-85
2023/04/02 11:38:10;;;;;;;1.00;0.85;;;;;;;15.71;nan;99335.53;4919532;29;20204;-84
2023/04/02 11:40:47;;;;;;;1.42;1.13;;;;;;;15.76;nan;99335.13;4931439;29;20206;-84
2023/04/02 11:43:31;;;;;;;1.13;0.70;;;;;;;15.88;nan;99334.03;4925242;29;20202;-85
2023/04/02 11:46:14;;;;;;;1.45;0.73;;;;;;;15.98;nan;99342.81;4923162;29;20931;-84
2023/04/02 11:48:40;;;;;;;0.70;0.70;;;;;;;16.07;nan;99344.63;4923921;29;20190;-84
2023/04/02 11:51:31;;;;;;;0.80;0.73;;;;;;;16.18;nan;99340.19;4923181;29;20555;-84
2023/04/02 11:54:00;;;;;;;0.70;0.60;;;;;;;16.29;nan;99342.69;4919148;29;20301;-81
2023/04/02 11:56:40;;;;;;;0.90;0.60;;;;;;;16.35;nan;99339.47;4923174;29;20358;-83
2023/04/02 11:59:20;;;;;;;1.10;0.70;;;;;;;16.35;nan;99336.81;4920405;29;21501;-83
2023/04/02 12:02:04;;;;;;;0.90;0.80;;;;;;;16.29;nan;99345.31;4923414;29;20204;-83
2023/04/02 12:05:23;;;;;;;0.90;0.80;;;;;;;16.30;nan;99349.63;4925044;29;20217;-85
2023/04/02 12:08:04;;;;;;;0.75;0.75;;;;;;;16.30;nan;99342.53;4917333;29;20862;-85
2023/04/02 12:10:51;;;;;;;1.85;0.65;;;;;;;16.33;nan;99352.00;4928474;29;20212;-84
2023/04/02 12:13:20;;;;;;;0.70;0.60;;;;;;;16.34;nan;99337.78;4927720;29;20721;-83
2023/04/02 12:15:48;;;;;;;0.70;0.60;;;;;;;16.37;nan;99351.59;4922653;29;20206;-84
2023/04/02 12:18:16;;;;;;;1.52;0.70;;;;;;;16.40;nan;99347.81;4923980;29;20208;-83
2023/04/02 12:20:55;;;;;;;0.90;0.70;;;;;;;16.38;nan;99347.13;4923957;29;20192;-85
2023/04/02 12:23:34;;;;;;;0.90;0.60;;;;;;;16.38;nan;99353.25;4924047;29;20200;-82
2023/04/02 12:26:08;;;;;;;0.70;0.65;;;;;;;16.43;nan;99352.00;4923209;29;20362;-83
2023/04/02 12:28:36;;;;;;;0.80;0.70;;;;;;;16.46;nan;99354.38;4922684;29;20239;-83
2023/04/02 12:31:08;;;;;;;0.93;0.75;;;;;;;16.45;nan;99350.91;4924385;29;20196;-83
2023/04/02 12:33:38;;;;;;;0.93;0.70;;;;;;;16.44;nan;99354.50;4924288;29;20212;-83
2023/04/02 12:36:22;;;;;;;1.05;0.70;;;;;;;16.45;nan;99361.50;4924854;29;20215;-85